Nettleton, Mississippi
Current Conditions -  °F | °C
As of 7:53 AM on Thursday 23 Oct 2014 (Local Time) from KTUP Reporting Station
Clear Clear  
Wind Chill: 40°   Ceiling: Unl
Heat Index: 44°   Visibility: 10mi
Dew Point: 41°   Wind: 7mph
Humidity: 89%   Direction: 40°NE
Pressure: 30.17"   Gusts: NA
Location:  34.09°N, 88.62°W
Report Text: KTUP 231253Z 04006KT 10SM CLR 07/05 A3017 RMK AO2 SLP217 T00670050
Loading
Personal Weather Stations






























Interactive Weather Map New forecast layout! Learn more

10-Day Weather Forecast

Advertisements
Track Severe Weather on mobile